Time;durP1;ratioP1;P1;durP2;ratioP2;P2;SDS_P1;SDS_P2;PMS_P1;PMS_P2;Temp;Humidity;BMP_temperature;BMP_pressure;BME280_temperature;BME280_humidity;BME280_pressure;Samples;Min_cycle;Max_cycle;Signal;HPM_P1;HPM_P2
2022/01/04 00:00:34;;;;;;;4.00;1.10;;;12.40;99.90;;;;;;5011775;28;20812;-87
2022/01/04 00:47:11;;;;;;;3.20;1.27;;;12.30;99.90;;;;;;4880078;29;20452;-87
2022/01/04 00:49:38;;;;;;;2.60;0.90;;;12.30;99.90;;;;;;4995274;28;20477;-87
2022/01/04 00:52:16;;;;;;;3.80;1.20;;;12.30;99.90;;;;;;5018953;28;20451;-88
2022/01/04 00:54:43;;;;;;;2.90;1.20;;;12.40;99.90;;;;;;5018554;28;20485;-88
2022/01/04 00:57:10;;;;;;;3.80;1.20;;;12.40;99.90;;;;;;5018466;28;20438;-89
2022/01/04 00:59:37;;;;;;;3.57;1.20;;;12.30;99.90;;;;;;5019348;28;20539;-88
2022/01/04 01:02:05;;;;;;;4.33;1.60;;;12.20;99.90;;;;;;5025276;28;20455;-89
2022/01/04 01:04:39;;;;;;;3.00;1.10;;;12.20;99.90;;;;;;5040132;28;20468;-88
2022/01/04 01:07:09;;;;;;;3.50;1.40;;;12.20;99.90;;;;;;5036522;28;20458;-89
2022/01/04 01:09:45;;;;;;;4.07;1.40;;;12.30;99.90;;;;;;5026811;28;20529;-89
2022/01/04 01:12:15;;;;;;;3.67;1.10;;;12.20;99.90;;;;;;5034861;28;20423;-88
2022/01/04 01:14:42;;;;;;;3.23;1.03;;;12.30;99.90;;;;;;5036158;28;20462;-87
2022/01/04 01:17:09;;;;;;;3.10;1.30;;;12.20;99.90;;;;;;5022866;28;20505;-87
2022/01/04 01:19:38;;;;;;;3.60;1.30;;;12.30;99.90;;;;;;5020978;28;20557;-86
2022/01/04 01:22:05;;;;;;;7.83;1.50;;;12.20;99.90;;;;;;5021937;28;20429;-87
2022/01/04 01:24:35;;;;;;;3.83;1.40;;;12.20;99.90;;;;;;5038761;28;20465;-86
2022/01/04 01:27:05;;;;;;;3.00;1.37;;;12.20;99.90;;;;;;5032049;28;20465;-88
2022/01/04 01:29:34;;;;;;;3.87;1.40;;;12.20;99.90;;;;;;5039305;28;20435;-85
2022/01/04 01:32:01;;;;;;;6.63;1.27;;;12.20;99.90;;;;;;5023097;28;20517;-88
2022/01/04 01:34:41;;;;;;;3.00;1.30;;;12.20;99.90;;;;;;5024575;28;20501;-88
2022/01/04 01:37:08;;;;;;;3.30;1.30;;;12.30;99.90;;;;;;5022337;28;20976;-88
2022/01/04 01:39:37;;;;;;;3.00;1.20;;;12.30;99.90;;;;;;5019974;28;20466;-88
2022/01/04 01:42:05;;;;;;;3.73;1.30;;;12.40;99.90;;;;;;5019529;28;20521;-88
2022/01/04 01:44:37;;;;;;;3.97;1.47;;;12.40;99.90;;;;;;5018382;28;20467;-88
2022/01/04 01:47:04;;;;;;;3.50;1.20;;;12.20;99.90;;;;;;5017678;28;20423;-88
2022/01/04 01:49:32;;;;;;;3.37;1.77;;;12.20;99.90;;;;;;5028241;28;20447;-88
2022/01/04 01:52:03;;;;;;;3.77;1.50;;;12.20;99.90;;;;;;5017660;28;20473;-87
2022/01/04 01:54:30;;;;;;;4.03;1.70;;;12.30;99.90;;;;;;5016823;28;20494;-89
2022/01/04 01:56:57;;;;;;;3.20;1.53;;;12.30;99.90;;;;;;5020616;28;20481;-88
2022/01/04 01:59:24;;;;;;;3.13;1.40;;;12.30;99.90;;;;;;5025961;28;20454;-88
2022/01/04 02:01:53;;;;;;;3.43;1.33;;;12.20;99.90;;;;;;5019311;28;20458;-88
2022/01/04 02:04:20;;;;;;;3.50;1.30;;;12.20;99.90;;;;;;5024501;28;20435;-88
2022/01/04 02:06:47;;;;;;;3.33;1.47;;;12.20;99.90;;;;;;5024267;28;20462;-88
2022/01/04 02:09:16;;;;;;;4.20;1.67;;;12.20;99.90;;;;;;5018433;28;20450;-88
2022/01/04 02:11:43;;;;;;;4.50;1.63;;;12.30;99.90;;;;;;5019635;28;20466;-87
2022/01/04 02:14:10;;;;;;;3.50;1.63;;;12.20;99.90;;;;;;5018603;28;20490;-87
2022/01/04 02:16:37;;;;;;;3.30;1.63;;;12.30;99.90;;;;;;5016603;28;20497;-88
2022/01/04 02:19:06;;;;;;;3.93;1.57;;;12.20;99.90;;;;;;5018314;28;20927;-88
2022/01/04 02:21:35;;;;;;;3.27;1.60;;;12.20;99.90;;;;;;5025379;28;20439;-87
2022/01/04 02:24:04;;;;;;;3.57;1.57;;;12.20;99.90;;;;;;5029388;28;20451;-87
2022/01/04 02:26:32;;;;;;;3.83;1.80;;;12.10;99.90;;;;;;5019808;28;20522;-87
2022/01/04 02:29:00;;;;;;;3.80;1.83;;;12.10;99.90;;;;;;5020177;28;20446;-87
2022/01/04 02:31:28;;;;;;;3.40;1.80;;;12.10;99.90;;;;;;5020899;28;20960;-87
2022/01/04 02:33:55;;;;;;;5.30;2.00;;;12.10;99.90;;;;;;5021231;28;20482;-87
2022/01/04 02:36:22;;;;;;;3.20;1.30;;;12.10;99.90;;;;;;5034781;28;20478;-85
2022/01/04 02:38:52;;;;;;;3.33;1.40;;;12.10;99.90;;;;;;5035478;28;20458;-87
2022/01/04 02:41:19;;;;;;;3.40;1.67;;;12.10;99.90;;;;;;5031521;28;20439;-87
2022/01/04 02:43:46;;;;;;;4.77;1.67;;;12.20;99.90;;;;;;5020036;28;20450;-88
2022/01/04 02:46:13;;;;;;;3.30;1.60;;;12.30;99.90;;;;;;5019287;28;20498;-88
2022/01/04 02:48:44;;;;;;;3.40;1.67;;;12.30;99.90;;;;;;5017445;28;20447;-88
2022/01/04 02:51:11;;;;;;;3.53;1.70;;;12.30;99.90;;;;;;5017093;28;20889;-89
2022/01/04 02:53:38;;;;;;;5.00;1.90;;;12.40;99.90;;;;;;5024007;28;20501;-88
2022/01/04 02:56:06;;;;;;;5.43;2.20;;;12.50;99.90;;;;;;5018415;28;20486;-89
2022/01/04 02:58:33;;;;;;;5.23;2.10;;;12.50;99.90;;;;;;5017953;28;20463;-88
2022/01/04 03:01:00;;;;;;;4.37;1.73;;;12.40;99.90;;;;;;5016773;28;20442;-88
2022/01/04 03:03:48;;;;;;;4.50;1.53;;;12.40;99.90;;;;;;5158456;27;20708;-87
2022/01/04 03:06:16;;;;;;;4.60;1.77;;;12.50;99.90;;;;;;5157301;27;20465;-87
2022/01/04 03:08:43;;;;;;;5.23;2.10;;;12.40;99.90;;;;;;5155674;27;20436;-87
2022/01/04 03:11:10;;;;;;;3.43;1.70;;;12.50;99.90;;;;;;5156262;27;20425;-87
2022/01/04 03:13:37;;;;;;;3.73;2.00;;;12.50;99.90;;;;;;5172131;27;20458;-86
2022/01/04 03:16:04;;;;;;;3.83;1.80;;;12.50;99.90;;;;;;5176889;27;20472;-87
2022/01/04 03:18:31;;;;;;;4.43;1.90;;;12.50;99.90;;;;;;5163620;27;20465;-88
2022/01/04 03:20:59;;;;;;;6.30;2.50;;;12.70;99.90;;;;;;5163551;27;20875;-87
2022/01/04 03:23:26;;;;;;;3.50;1.40;;;12.60;99.90;;;;;;5164098;27;20518;-88
2022/01/04 03:25:53;;;;;;;4.20;1.60;;;12.60;99.90;;;;;;5163717;27;20481;-87
2022/01/04 03:28:22;;;;;;;3.50;1.87;;;12.60;99.90;;;;;;5163419;27;20462;-88
2022/01/04 03:30:49;;;;;;;4.50;1.87;;;12.60;99.90;;;;;;5175884;27;20440;-86
2022/01/04 03:33:16;;;;;;;3.43;1.30;;;12.60;99.90;;;;;;5171083;27;20432;-88
2022/01/04 03:35:43;;;;;;;3.57;1.60;;;12.70;99.90;;;;;;5173632;27;20483;-88
2022/01/04 03:38:12;;;;;;;3.43;1.50;;;12.70;99.90;;;;;;5159050;27;20525;-88
2022/01/04 03:40:39;;;;;;;5.20;1.50;;;12.70;99.90;;;;;;5159632;27;20448;-87
2022/01/04 03:43:06;;;;;;;3.70;2.03;;;12.60;99.90;;;;;;5160277;27;20472;-87
2022/01/04 03:45:33;;;;;;;3.80;1.80;;;12.70;99.90;;;;;;5156678;27;20560;-88
2022/01/04 03:48:00;;;;;;;3.67;1.60;;;12.60;99.90;;;;;;5155576;27;20467;-88
2022/01/04 03:50:27;;;;;;;3.13;1.63;;;12.60;99.90;;;;;;5155182;27;20440;-87
2022/01/04 03:52:54;;;;;;;3.80;1.50;;;12.60;99.90;;;;;;5154312;27;20496;-87
2022/01/04 03:55:22;;;;;;;3.37;1.30;;;12.70;99.90;;;;;;5154515;27;20512;-88
2022/01/04 03:57:49;;;;;;;3.60;1.60;;;12.70;99.90;;;;;;5157475;27;20475;-87
2022/01/04 04:00:16;;;;;;;3.03;1.30;;;12.70;99.90;;;;;;5175802;27;20420;-86
2022/01/04 04:02:43;;;;;;;3.70;1.57;;;12.80;99.90;;;;;;5176349;27;20488;-85
2022/01/04 04:05:10;;;;;;;3.37;1.43;;;12.70;99.90;;;;;;5172643;27;20491;-87
2022/01/04 04:07:37;;;;;;;3.50;1.03;;;12.70;99.90;;;;;;5176092;27;20473;-87
2022/01/04 04:10:05;;;;;;;3.30;1.27;;;12.80;99.90;;;;;;5166363;27;20463;-88
2022/01/04 04:12:33;;;;;;;3.73;1.27;;;12.80;99.90;;;;;;5157398;27;20496;-88
2022/01/04 04:15:04;;;;;;;3.07;1.20;;;12.70;99.90;;;;;;5142895;27;20496;-87
2022/01/04 04:17:31;;;;;;;3.17;1.17;;;12.80;99.90;;;;;;5146364;27;20422;-87
2022/01/04 04:19:58;;;;;;;3.00;1.30;;;12.80;99.90;;;;;;5147582;27;20486;-87
2022/01/04 04:22:25;;;;;;;3.23;1.30;;;12.80;99.90;;;;;;5146592;27;20529;-86
2022/01/04 04:24:52;;;;;;;3.00;1.10;;;12.70;99.90;;;;;;5144527;27;20461;-87
2022/01/04 04:27:19;;;;;;;2.90;1.27;;;12.70;99.90;;;;;;5143837;27;20457;-87
2022/01/04 04:29:47;;;;;;;2.90;1.20;;;12.80;99.90;;;;;;5151931;27;20456;-88
2022/01/04 04:32:14;;;;;;;5.50;1.30;;;12.70;99.90;;;;;;5158220;27;20437;-87
2022/01/04 04:34:41;;;;;;;3.60;1.20;;;12.70;99.90;;;;;;5154271;27;20448;-87
2022/01/04 04:37:08;;;;;;;3.77;1.27;;;12.60;99.90;;;;;;5154330;27;20437;-87
2022/01/04 04:39:35;;;;;;;2.80;1.10;;;12.60;99.90;;;;;;5149669;27;20484;-86
2022/01/04 04:42:02;;;;;;;3.00;1.17;;;12.60;99.90;;;;;;5141926;27;20476;-88
2022/01/04 04:44:29;;;;;;;2.77;1.20;;;12.70;99.90;;;;;;5140925;27;20477;-87
2022/01/04 04:46:58;;;;;;;3.40;1.53;;;12.60;99.90;;;;;;5151829;27;20440;-87
2022/01/04 04:49:25;;;;;;;2.67;1.07;;;12.60;99.90;;;;;;5155528;27;20498;-88
2022/01/04 04:51:54;;;;;;;3.33;1.37;;;12.70;99.90;;;;;;5151465;27;20461;-87
2022/01/04 04:54:21;;;;;;;2.80;0.97;;;12.70;99.90;;;;;;5142899;27;20449;-88
2022/01/04 04:56:48;;;;;;;2.87;1.27;;;12.80;99.90;;;;;;5141725;27;20548;-88
2022/01/04 04:59:16;;;;;;;3.60;1.47;;;12.60;99.90;;;;;;5140815;27;20823;-88
2022/01/04 05:01:42;;;;;;;4.13;1.40;;;12.60;99.90;;;;;;5140536;27;20889;-88
2022/01/04 05:04:12;;;;;;;3.30;1.40;;;12.60;99.90;;;;;;5139686;27;20506;-87
2022/01/04 05:06:39;;;;;;;3.03;1.23;;;12.60;99.90;;;;;;5141551;27;21007;-88
2022/01/04 05:09:06;;;;;;;2.40;0.90;;;12.60;99.90;;;;;;5144250;27;20532;-88
2022/01/04 05:11:33;;;;;;;3.27;1.50;;;12.70;99.90;;;;;;5141893;27;20449;-88
2022/01/04 05:14:00;;;;;;;4.07;1.93;;;12.60;99.90;;;;;;5141861;27;20441;-87
2022/01/04 05:16:27;;;;;;;3.47;1.47;;;12.60;99.90;;;;;;5140895;27;20457;-88
2022/01/04 05:18:54;;;;;;;2.80;1.20;;;12.70;99.90;;;;;;5142290;27;20535;-88
2022/01/04 05:21:23;;;;;;;3.50;1.27;;;12.60;99.90;;;;;;5141333;27;20476;-88
2022/01/04 05:23:52;;;;;;;4.27;1.27;;;12.60;99.90;;;;;;5141401;27;20465;-88
2022/01/04 05:26:19;;;;;;;4.00;1.60;;;12.60;99.90;;;;;;5142567;27;20490;-87
2022/01/04 05:28:46;;;;;;;2.87;1.50;;;12.70;99.90;;;;;;5145154;27;20461;-87
2022/01/04 05:31:13;;;;;;;4.93;1.40;;;12.60;99.90;;;;;;5143156;27;20972;-87
2022/01/04 05:33:40;;;;;;;3.50;1.20;;;12.60;99.90;;;;;;5151519;27;20445;-88
2022/01/04 05:36:07;;;;;;;3.10;1.40;;;12.50;99.90;;;;;;5159504;27;20476;-87
2022/01/04 05:38:35;;;;;;;3.50;1.40;;;12.50;99.90;;;;;;5154742;27;20496;-87
2022/01/04 05:41:02;;;;;;;3.80;1.80;;;12.50;99.90;;;;;;5156565;27;20456;-87
2022/01/04 05:43:29;;;;;;;3.43;1.57;;;12.60;99.90;;;;;;5146397;27;20477;-88
2022/01/04 05:45:56;;;;;;;3.43;1.40;;;12.60;99.90;;;;;;5142125;27;20453;-86
2022/01/04 05:48:26;;;;;;;2.90;1.17;;;12.50;99.90;;;;;;5142552;27;20885;-86
2022/01/04 05:50:54;;;;;;;3.67;1.30;;;12.50;99.90;;;;;;5142438;27;20429;-87
2022/01/04 05:53:21;;;;;;;2.97;1.20;;;12.40;99.90;;;;;;5141085;27;20449;-87
2022/01/04 05:55:49;;;;;;;3.10;1.23;;;12.30;99.90;;;;;;5140864;27;20499;-88
2022/01/04 05:58:16;;;;;;;3.70;1.20;;;12.40;99.90;;;;;;5140434;27;20837;-87
2022/01/04 06:00:43;;;;;;;3.57;1.57;;;12.40;99.90;;;;;;5144111;27;20498;-87
2022/01/04 06:03:10;;;;;;;3.37;1.27;;;12.50;99.90;;;;;;5144190;27;21026;-87
2022/01/04 06:06:03;;;;;;;;;;;;;;;;;;;;;
2022/01/04 06:08:45;;;;;;;3.77;1.40;;;12.50;99.90;;;;;;5069399;28;20455;-87
2022/01/04 06:11:57;;;;;;;3.43;1.60;;;12.40;99.90;;;;;;5074072;28;20936;-87
2022/01/04 06:15:02;;;;;;;3.37;1.43;;;12.40;99.90;;;;;;5064512;28;20453;-87
2022/01/04 06:17:47;;;;;;;4.27;1.30;;;12.50;99.90;;;;;;5044172;28;20458;-88
2022/01/04 06:20:27;;;;;;;3.60;1.60;;;12.50;99.90;;;;;;5044444;28;21032;-88
2022/01/04 06:26:37;;;;;;;3.70;1.53;;;12.50;99.90;;;;;;5044090;28;20453;-87
2022/01/04 06:29:16;;;;;;;2.80;1.03;;;12.50;99.90;;;;;;5043439;28;20434;-88
2022/01/04 06:35:08;;;;;;;;;;;;;;;;;;;;;
2022/01/04 06:41:08;;;;;;;2.90;1.17;;;12.50;99.90;;;;;;5040526;28;20445;-88
2022/01/04 06:43:45;;;;;;;2.80;1.10;;;12.50;99.90;;;;;;5040885;28;20564;-87
2022/01/04 06:46:45;;;;;;;3.63;1.77;;;12.50;99.90;;;;;;5040365;28;20833;-87
2022/01/04 06:49:18;;;;;;;2.80;1.20;;;12.60;99.90;;;;;;5052183;28;20441;-87
2022/01/04 06:57:43;;;;;;;3.37;1.20;;;12.50;99.90;;;;;;5041668;28;20478;-87
2022/01/04 07:00:16;;;;;;;3.20;1.40;;;12.50;99.90;;;;;;5041410;28;20450;-87
2022/01/04 07:09:47;;;;;;;2.93;1.10;;;12.60;99.90;;;;;;4969560;28;20465;-86
2022/01/04 07:12:15;;;;;;;3.30;1.40;;;12.60;99.90;;;;;;5054926;28;20484;-88
2022/01/04 07:14:45;;;;;;;3.80;1.20;;;12.50;99.90;;;;;;5041465;28;20534;-87
2022/01/04 07:17:33;;;;;;;4.70;1.40;;;12.50;99.90;;;;;;5042960;28;20485;-87
2022/01/04 07:22:48;;;;;;;3.27;1.33;;;12.50;99.90;;;;;;5027368;28;20441;-87
2022/01/04 07:25:25;;;;;;;3.50;1.60;;;12.50;99.90;;;;;;5040018;28;20503;-87
2022/01/04 07:27:55;;;;;;;3.30;1.30;;;12.50;99.90;;;;;;5040100;28;20822;-88
2022/01/04 07:30:26;;;;;;;5.13;1.53;;;12.60;99.90;;;;;;5040244;28;20474;-89
2022/01/04 07:32:58;;;;;;;3.73;1.57;;;12.50;99.90;;;;;;5040560;28;20456;-88
2022/01/04 07:35:40;;;;;;;4.27;1.60;;;12.50;99.90;;;;;;5040618;28;20458;-88
2022/01/04 07:38:14;;;;;;;3.60;1.67;;;12.60;99.90;;;;;;5041456;28;20507;-87
2022/01/04 07:40:41;;;;;;;2.80;1.40;;;12.60;99.90;;;;;;5044010;28;20417;-87
2022/01/04 07:43:08;;;;;;;3.53;1.40;;;12.70;99.90;;;;;;5051578;28;20497;-87
2022/01/04 07:45:36;;;;;;;3.67;1.53;;;12.70;99.90;;;;;;5056394;28;20497;-87
2022/01/04 07:51:32;;;;;;;6.27;1.67;;;12.80;99.90;;;;;;4932587;28;20447;-89
2022/01/04 07:53:59;;;;;;;4.00;1.10;;;12.80;99.90;;;;;;4961786;29;20444;-88
2022/01/04 07:56:38;;;;;;;3.43;1.20;;;13.00;99.90;;;;;;5039649;28;20548;-88
2022/01/04 07:59:08;;;;;;;2.87;1.17;;;12.90;99.90;;;;;;5046626;28;20430;-88
2022/01/04 08:01:37;;;;;;;2.60;0.90;;;12.90;99.90;;;;;;5045175;28;20445;-88
2022/01/04 08:04:06;;;;;;;3.00;1.33;;;13.00;99.90;;;;;;5043027;28;20485;-88
2022/01/04 08:06:33;;;;;;;3.20;1.00;;;13.00;99.90;;;;;;5047051;28;20984;-88
2022/01/04 08:09:00;;;;;;;4.80;1.40;;;13.00;99.90;;;;;;5046540;28;20836;-88
2022/01/04 08:11:27;;;;;;;3.30;1.60;;;13.10;99.90;;;;;;5042485;28;20428;-89
2022/01/04 08:13:56;;;;;;;3.60;1.10;;;13.20;99.90;;;;;;5043694;28;20459;-89
2022/01/04 08:16:26;;;;;;;3.93;1.10;;;13.20;99.90;;;;;;5043273;28;20826;-88
2022/01/04 08:18:53;;;;;;;3.73;1.30;;;13.40;99.90;;;;;;5045666;28;20453;-88
2022/01/04 08:21:30;;;;;;;3.43;1.67;;;13.40;99.90;;;;;;5054329;28;20440;-90
2022/01/04 08:44:23;;;;;;;6.00;1.53;;;13.70;99.90;;;;;;4888565;29;20654;-89
2022/01/04 09:21:40;;;;;;;;;;;;;;;;;;;;;
2022/01/04 09:38:18;;;;;;;3.13;1.13;;;13.90;99.90;;;;;;5779489;23;20490;-87
2022/01/04 09:51:58;;;;;;;2.90;1.23;;;13.80;99.90;;;;;;5339694;23;20482;-87
2022/01/04 10:14:48;;;;;;;3.60;1.43;;;13.80;99.90;;;;;;5038429;22;20927;-90
2022/01/04 10:24:12;;;;;;;3.60;1.47;;;13.80;99.90;;;;;;5025039;28;20486;-90
2022/01/04 10:27:10;;;;;;;;;;;;;;;;;;;;;
2022/01/04 10:30:35;;;;;;;5.00;1.80;;;13.80;99.90;;;;;;5030532;28;20474;-92
2022/01/04 10:33:13;;;;;;;7.30;1.37;;;13.80;99.90;;;;;;5028983;28;20467;-90
2022/01/04 10:39:22;;;;;;;3.70;1.90;;;14.00;99.90;;;;;;5026922;28;20492;-91
2022/01/04 10:46:18;;;;;;;4.20;1.63;;;14.10;99.90;;;;;;4952210;29;20564;-91
2022/01/04 10:49:20;;;;;;;4.07;2.10;;;14.10;99.90;;;;;;4931727;28;20493;-91
2022/01/04 10:52:23;;;;;;;7.13;1.50;;;14.10;99.90;;;;;;5026836;28;20389;-90
2022/01/04 11:11:04;;;;;;;4.00;2.00;;;14.30;99.90;;;;;;5003601;28;20478;-91
2022/01/04 11:13:34;;;;;;;3.80;1.67;;;14.40;99.90;;;;;;5007813;28;20471;-90
2022/01/04 11:27:15;;;;;;;4.43;1.83;;;14.40;99.90;;;;;;4953188;28;20494;-90
2022/01/04 11:30:11;;;;;;;4.30;2.03;;;14.30;99.90;;;;;;4954474;29;20456;-88
2022/01/04 11:32:53;;;;;;;3.80;1.43;;;14.50;99.90;;;;;;4967671;28;20469;-90
2022/01/04 11:35:26;;;;;;;3.70;1.43;;;14.40;99.90;;;;;;5012628;28;20508;-90
2022/01/04 11:37:58;;;;;;;4.43;1.70;;;14.30;99.90;;;;;;5014934;28;20450;-90
2022/01/04 11:41:29;;;;;;;11.03;3.67;;;14.30;99.90;;;;;;5012230;28;20430;-90
2022/01/04 11:51:04;;;;;;;5.47;2.40;;;14.20;99.90;;;;;;4969843;29;20428;-90
2022/01/04 11:53:53;;;;;;;4.30;1.80;;;14.10;99.90;;;;;;4972099;29;20532;-89
2022/01/04 11:57:08;;;;;;;7.83;3.60;;;14.20;99.90;;;;;;4972307;29;20537;-90
2022/01/04 11:59:37;;;;;;;3.70;1.60;;;14.20;99.90;;;;;;4968547;29;20492;-88
2022/01/04 12:02:31;;;;;;;4.20;2.00;;;14.30;99.90;;;;;;4986972;28;20467;-88
2022/01/04 12:04:59;;;;;;;4.20;2.30;;;14.10;99.90;;;;;;5002080;28;20503;-86
2022/01/04 15:27:33;;;;;;;2.50;0.80;;;8.70;99.90;;;;;;4795545;23;20805;-92
2022/01/04 16:50:27;;;;;;;3.30;1.85;;;8.00;99.90;;;;;;5070582;22;20245;-90
2022/01/04 16:52:57;;;;;;;4.65;3.00;;;8.20;99.90;;;;;;5052059;28;20209;-90
2022/01/04 16:58:30;;;;;;;4.22;2.75;;;8.40;99.90;;;;;;4977482;28;20223;-92
2022/01/04 17:00:57;;;;;;;3.80;1.92;;;8.30;99.90;;;;;;5007998;28;20199;-89
2022/01/04 17:03:24;;;;;;;3.65;2.17;;;8.20;99.90;;;;;;5017424;28;20207;-89
2022/01/04 17:05:53;;;;;;;4.68;2.20;;;8.20;99.90;;;;;;5006155;28;20238;-90
2022/01/04 17:08:20;;;;;;;4.88;2.72;;;8.00;99.90;;;;;;5004808;28;20219;-90
2022/01/04 17:10:58;;;;;;;4.60;2.50;;;8.00;99.90;;;;;;5002804;28;20249;-92
2022/01/04 17:16:19;;;;;;;5.25;2.10;;;8.10;99.90;;;;;;5009480;28;20279;-91
2022/01/04 17:19:11;;;;;;;4.30;2.22;;;8.20;99.90;;;;;;5013157;28;20204;-90
2022/01/04 17:21:44;;;;;;;3.50;1.83;;;8.10;99.90;;;;;;5001788;28;20208;-92
2022/01/04 17:24:39;;;;;;;3.53;1.67;;;8.00;99.90;;;;;;5003860;28;20214;-90
2022/01/04 17:27:29;;;;;;;4.95;2.90;;;8.00;99.90;;;;;;5017174;28;20219;-89
2022/01/04 17:29:57;;;;;;;3.55;2.10;;;8.10;99.90;;;;;;5015949;28;20202;-89
2022/01/04 17:32:24;;;;;;;4.20;1.90;;;8.40;99.90;;;;;;5003060;28;20219;-92
2022/01/04 17:34:53;;;;;;;5.50;2.75;;;8.40;99.90;;;;;;5001105;28;20207;-92
2022/01/04 17:37:29;;;;;;;4.30;2.33;;;8.40;99.90;;;;;;5000953;28;20692;-92
2022/01/04 17:39:56;;;;;;;3.85;1.90;;;8.40;99.90;;;;;;5001717;28;20210;-89
2022/01/04 17:42:30;;;;;;;4.00;2.22;;;8.30;99.90;;;;;;5012710;28;20191;-92
2022/01/04 17:45:02;;;;;;;5.38;2.72;;;8.10;99.90;;;;;;5017144;28;20270;-91
2022/01/04 17:47:29;;;;;;;5.43;3.50;;;8.10;99.90;;;;;;5007591;28;20235;-91
2022/01/04 18:04:42;;;;;;;6.63;2.45;;;8.00;99.90;;;;;;4993977;28;20279;-93
2022/01/04 18:10:10;;;;;;;3.55;2.15;;;8.10;99.90;;;;;;5051391;22;20268;-89
2022/01/04 18:12:43;;;;;;;2.95;1.40;;;8.20;99.90;;;;;;5024457;28;20215;-90
2022/01/04 18:15:13;;;;;;;3.33;1.50;;;7.90;99.90;;;;;;5024756;28;20682;-89
2022/01/04 18:17:43;;;;;;;3.22;1.30;;;8.00;99.90;;;;;;5021095;28;20545;-90
2022/01/04 18:20:22;;;;;;;5.05;2.15;;;8.00;99.90;;;;;;5030909;28;20221;-89
2022/01/04 18:22:49;;;;;;;3.08;1.30;;;7.70;99.90;;;;;;5036053;28;20247;-89
2022/01/04 18:25:24;;;;;;;3.95;1.83;;;7.60;99.90;;;;;;5032208;28;20257;-89
2022/01/04 18:27:53;;;;;;;3.05;1.48;;;7.40;99.90;;;;;;5035504;28;20229;-90
2022/01/04 18:30:26;;;;;;;2.90;1.20;;;7.30;99.90;;;;;;5029184;28;20217;-90
2022/01/04 18:32:56;;;;;;;3.85;2.05;;;7.10;99.90;;;;;;5028591;28;20217;-89
2022/01/04 18:35:25;;;;;;;3.40;1.70;;;7.30;99.90;;;;;;5028058;28;20206;-90
2022/01/04 18:40:37;;;;;;;3.03;1.20;;;7.30;99.90;;;;;;5033977;28;20214;-89
2022/01/04 18:43:04;;;;;;;2.70;1.00;;;7.50;99.90;;;;;;5032464;28;20216;-88
2022/01/04 18:45:33;;;;;;;3.17;1.00;;;7.60;99.90;;;;;;5022263;28;20262;-90
2022/01/04 18:48:00;;;;;;;3.40;1.50;;;7.60;99.90;;;;;;5023442;28;20257;-89
2022/01/04 18:50:28;;;;;;;2.85;0.77;;;7.60;99.90;;;;;;5018698;28;20203;-89
2022/01/04 18:52:55;;;;;;;4.03;1.50;;;7.70;99.90;;;;;;5018669;28;20293;-89
2022/01/04 18:55:22;;;;;;;2.35;0.70;;;7.70;99.90;;;;;;5018667;28;20241;-88
2022/01/04 18:57:50;;;;;;;2.85;1.00;;;7.70;99.90;;;;;;5018462;28;20249;-90
2022/01/04 19:00:17;;;;;;;2.83;0.88;;;7.50;99.90;;;;;;5019310;28;20561;-89
2022/01/04 19:02:46;;;;;;;3.13;1.20;;;7.30;99.90;;;;;;5020723;28;20297;-91
2022/01/04 19:05:13;;;;;;;3.15;0.93;;;7.00;99.90;;;;;;5018785;28;20265;-90
2022/01/04 19:07:46;;;;;;;2.63;0.77;;;7.30;99.90;;;;;;5019032;28;20234;-89
2022/01/04 19:10:14;;;;;;;2.65;0.70;;;7.50;99.90;;;;;;5021063;28;20222;-88
2022/01/04 19:12:41;;;;;;;2.40;0.73;;;7.50;99.90;;;;;;5018549;28;20209;-88
2022/01/04 19:15:09;;;;;;;2.45;0.70;;;7.40;99.90;;;;;;5018344;28;20206;-89
2022/01/04 19:17:36;;;;;;;2.50;0.90;;;7.30;99.90;;;;;;5018659;28;20238;-89
2022/01/04 19:20:04;;;;;;;2.60;0.75;;;7.20;99.90;;;;;;5018319;28;20221;-90
2022/01/04 19:22:32;;;;;;;2.45;0.80;;;7.20;99.90;;;;;;5018729;28;20276;-88
2022/01/04 19:25:02;;;;;;;3.58;1.30;;;7.30;99.90;;;;;;5019381;28;20756;-90
2022/01/04 19:27:29;;;;;;;3.30;1.15;;;7.20;99.90;;;;;;5018840;28;20248;-89
2022/01/04 19:29:55;;;;;;;3.95;1.50;;;7.30;99.90;;;;;;5019432;28;20274;-90
2022/01/04 19:32:56;;;;;;;2.30;0.80;;;7.30;99.90;;;;;;5031129;28;20214;-89
2022/01/04 19:38:09;;;;;;;3.40;1.35;;;7.30;99.90;;;;;;5038076;28;20217;-87
2022/01/04 19:40:38;;;;;;;2.58;1.05;;;7.20;99.90;;;;;;5033157;28;20259;-89
2022/01/04 19:43:07;;;;;;;3.03;1.20;;;7.40;99.90;;;;;;5036885;28;20202;-88
2022/01/04 19:45:34;;;;;;;2.60;1.10;;;7.30;99.90;;;;;;5037604;28;20254;-89
2022/01/04 19:48:01;;;;;;;3.40;0.98;;;7.30;99.90;;;;;;5025171;28;20237;-88
2022/01/04 19:50:28;;;;;;;3.80;1.40;;;7.30;99.90;;;;;;5024796;28;20206;-90
2022/01/04 19:52:56;;;;;;;2.70;1.10;;;7.20;99.90;;;;;;5035051;28;20203;-90
2022/01/04 19:55:22;;;;;;;3.00;1.25;;;7.00;99.90;;;;;;5024530;28;20206;-90
2022/01/04 19:57:51;;;;;;;2.88;1.20;;;7.00;99.90;;;;;;5021642;28;20247;-90
2022/01/04 20:00:18;;;;;;;3.10;1.00;;;7.00;99.90;;;;;;5022621;28;20221;-89
2022/01/04 20:02:45;;;;;;;3.53;1.27;;;7.10;99.90;;;;;;5022645;28;20300;-88
2022/01/04 20:05:12;;;;;;;4.05;1.50;;;7.30;99.90;;;;;;5021464;28;20227;-90
2022/01/04 20:07:39;;;;;;;5.05;1.67;;;7.30;99.90;;;;;;5021773;28;20226;-89
2022/01/04 20:10:08;;;;;;;3.33;1.65;;;7.30;99.90;;;;;;5033009;28;20245;-90
2022/01/04 20:12:35;;;;;;;4.32;1.42;;;7.20;99.90;;;;;;5023598;28;20202;-90
2022/01/04 20:15:03;;;;;;;2.88;1.30;;;6.90;99.90;;;;;;5028686;28;20212;-89
2022/01/04 20:17:30;;;;;;;4.65;2.38;;;7.10;99.90;;;;;;5021079;28;20226;-90
2022/01/04 20:19:57;;;;;;;4.05;1.33;;;6.90;99.90;;;;;;5021978;28;20288;-88
2022/01/04 20:22:26;;;;;;;3.00;1.60;;;7.10;99.90;;;;;;5022863;28;20214;-89
2022/01/04 20:24:53;;;;;;;3.00;1.25;;;7.00;99.90;;;;;;5039315;28;20273;-90
2022/01/04 20:27:20;;;;;;;3.17;1.55;;;6.60;99.90;;;;;;5038296;28;20214;-90
2022/01/04 20:29:47;;;;;;;3.92;1.90;;;7.00;99.90;;;;;;5025674;28;20205;-89
2022/01/04 20:32:22;;;;;;;3.55;1.67;;;6.60;99.90;;;;;;5037565;28;20272;-89
2022/01/04 20:34:57;;;;;;;3.42;1.58;;;7.00;99.90;;;;;;5031704;28;20194;-89
2022/01/04 20:37:28;;;;;;;3.10;1.48;;;7.00;99.90;;;;;;5028381;28;20235;-89
2022/01/04 20:39:58;;;;;;;4.90;1.67;;;6.60;99.90;;;;;;5025564;28;20218;-90
2022/01/04 20:42:25;;;;;;;3.72;1.70;;;7.00;99.90;;;;;;5029450;28;20206;-90
2022/01/04 20:44:52;;;;;;;3.15;1.52;;;7.10;99.90;;;;;;5027052;28;20213;-89
2022/01/04 20:47:21;;;;;;;3.42;1.70;;;7.00;99.90;;;;;;5025372;28;20322;-89
2022/01/04 20:49:47;;;;;;;3.10;1.45;;;7.20;99.90;;;;;;5024729;28;20214;-89
2022/01/04 20:52:21;;;;;;;3.38;1.60;;;7.20;99.90;;;;;;5024065;28;20241;-89
2022/01/04 20:54:51;;;;;;;5.30;2.15;;;7.20;99.90;;;;;;5035245;28;20663;-89
2022/01/04 20:57:19;;;;;;;3.58;1.95;;;7.20;99.90;;;;;;5036569;28;20222;-89
2022/01/04 20:59:46;;;;;;;6.68;2.13;;;7.20;99.90;;;;;;5034479;28;20258;-90
2022/01/04 21:02:15;;;;;;;4.57;2.45;;;7.10;99.90;;;;;;5030542;28;20297;-91
2022/01/04 21:04:49;;;;;;;3.95;1.90;;;7.30;99.90;;;;;;5028365;28;20214;-89
2022/01/04 21:07:16;;;;;;;5.53;2.60;;;7.40;99.90;;;;;;5026541;28;20238;-91
2022/01/04 21:09:43;;;;;;;3.47;1.90;;;7.50;99.90;;;;;;5028904;28;20206;-89
2022/01/04 21:12:10;;;;;;;4.68;2.42;;;7.50;99.90;;;;;;5024741;28;20210;-90
2022/01/04 21:14:37;;;;;;;4.45;2.30;;;7.50;99.90;;;;;;5020347;28;20245;-89
2022/01/04 21:17:05;;;;;;;4.95;2.50;;;7.50;99.90;;;;;;5019855;28;20276;-90
2022/01/04 21:19:31;;;;;;;4.28;2.30;;;7.50;99.90;;;;;;5020206;28;20235;-89
2022/01/04 21:22:00;;;;;;;4.43;2.35;;;7.50;99.90;;;;;;5019534;28;20584;-91
2022/01/04 21:24:26;;;;;;;4.90;2.75;;;7.30;99.90;;;;;;5020082;28;20210;-89
2022/01/04 21:26:53;;;;;;;4.15;2.13;;;7.50;99.90;;;;;;5019991;28;20235;-90
2022/01/04 21:29:22;;;;;;;4.50;2.42;;;7.60;99.90;;;;;;5019856;28;20589;-89
2022/01/04 21:31:49;;;;;;;5.75;2.78;;;7.30;99.90;;;;;;5019774;28;20615;-89
2022/01/04 21:34:16;;;;;;;4.35;2.42;;;7.60;99.90;;;;;;5019345;28;20209;-90
2022/01/04 21:36:43;;;;;;;4.50;2.90;;;7.60;99.90;;;;;;5025320;28;20250;-90
2022/01/04 21:39:17;;;;;;;4.00;2.67;;;7.60;99.90;;;;;;5030428;28;20214;-90
2022/01/04 21:42:15;;;;;;;5.47;2.78;;;7.70;99.90;;;;;;5156952;23;20261;-89
2022/01/04 21:45:14;;;;;;;4.32;2.58;;;7.60;99.90;;;;;;5123318;23;20225;-89
2022/01/04 21:47:57;;;;;;;4.40;2.22;;;7.20;99.90;;;;;;5141141;22;20275;-89
2022/01/04 21:50:25;;;;;;;4.20;2.30;;;7.60;99.90;;;;;;5041797;28;20657;-89
2022/01/04 21:52:52;;;;;;;3.65;1.95;;;7.60;99.90;;;;;;5043238;28;20709;-90
2022/01/04 21:55:21;;;;;;;5.30;2.75;;;7.70;99.90;;;;;;5045896;28;20209;-89
2022/01/04 21:57:48;;;;;;;4.20;1.90;;;7.60;99.90;;;;;;5053359;28;20243;-88
2022/01/04 22:00:16;;;;;;;5.65;2.10;;;7.70;99.90;;;;;;5050864;28;20214;-90
2022/01/04 22:02:43;;;;;;;3.80;1.52;;;7.80;99.90;;;;;;5041298;28;20240;-90
2022/01/04 22:05:10;;;;;;;3.30;1.55;;;7.90;99.90;;;;;;5043837;28;20264;-89
2022/01/04 22:07:37;;;;;;;4.95;2.97;;;7.90;99.90;;;;;;5043871;28;20226;-90